Time;durP1;ratioP1;P1;durP2;ratioP2;P2;SDS_P1;SDS_P2;PMS_P1;PMS_P2;Temp;Humidity;BMP_temperature;BMP_pressure;BME280_temperature;BME280_humidity;BME280_pressure;Samples;Min_cycle;Max_cycle;Signal;HPM_P1;HPM_P2
2021/05/26 00:01:23;;;;;;;1.55;1.45;;;6.10;99.90;;;;;;4735996;30;20074;-86
2021/05/26 00:03:52;;;;;;;0.90;0.90;;;6.00;99.90;;;;;;4767428;30;20083;-85
2021/05/26 00:06:20;;;;;;;2.40;1.88;;;6.00;99.90;;;;;;4751297;30;20051;-85
2021/05/26 00:08:48;;;;;;;3.70;1.05;;;6.10;99.90;;;;;;4742123;30;20060;-86
2021/05/26 00:11:18;;;;;;;0.98;0.98;;;6.30;99.90;;;;;;4730307;30;20071;-85
2021/05/26 00:13:47;;;;;;;1.08;0.98;;;6.10;99.90;;;;;;4716372;30;20060;-86
2021/05/26 00:16:16;;;;;;;0.80;0.80;;;5.90;99.90;;;;;;4715118;30;20113;-85
2021/05/26 00:18:44;;;;;;;1.38;1.27;;;5.70;99.90;;;;;;4716716;30;20461;-85
2021/05/26 00:21:12;;;;;;;2.25;1.25;;;5.60;99.90;;;;;;4716054;30;20065;-84
2021/05/26 00:23:40;;;;;;;4.40;1.42;;;5.60;99.90;;;;;;4715254;30;20049;-86
2021/05/26 00:26:08;;;;;;;1.05;0.93;;;5.50;99.90;;;;;;4730681;30;20049;-85
2021/05/26 00:28:36;;;;;;;3.40;0.70;;;5.40;99.90;;;;;;4716283;30;20052;-85
2021/05/26 00:31:06;;;;;;;1.33;1.10;;;5.40;99.90;;;;;;4730341;30;20061;-85
2021/05/26 00:33:34;;;;;;;1.15;1.05;;;5.50;99.90;;;;;;4730677;30;20417;-84
2021/05/26 00:36:03;;;;;;;2.88;1.45;;;5.50;99.90;;;;;;4725918;30;20063;-86
2021/05/26 00:38:31;;;;;;;1.63;1.45;;;5.50;99.90;;;;;;4735255;30;20056;-86
2021/05/26 00:40:59;;;;;;;1.45;1.35;;;5.50;99.90;;;;;;4721920;30;20495;-86
2021/05/26 00:43:34;;;;;;;1.70;0.93;;;5.50;99.90;;;;;;4752788;30;20066;-85
2021/05/26 00:46:03;;;;;;;4.72;1.38;;;5.30;99.90;;;;;;4763201;30;20063;-86
2021/05/26 00:48:30;;;;;;;1.63;1.38;;;5.30;99.90;;;;;;4700913;30;20069;-85
2021/05/26 00:50:58;;;;;;;1.08;0.90;;;5.30;99.90;;;;;;4701411;30;20056;-85
2021/05/26 00:53:28;;;;;;;1.30;1.20;;;5.40;99.90;;;;;;4699940;30;20048;-85
2021/05/26 00:55:57;;;;;;;2.08;1.55;;;5.30;99.90;;;;;;4715761;30;20492;-86
2021/05/26 00:58:26;;;;;;;1.25;1.13;;;5.40;99.90;;;;;;4701609;30;20064;-86
2021/05/26 01:00:56;;;;;;;1.55;1.45;;;5.30;99.90;;;;;;4714879;30;20052;-85
2021/05/26 01:03:25;;;;;;;0.90;0.90;;;5.30;99.90;;;;;;4731750;30;20423;-85
2021/05/26 01:05:53;;;;;;;2.25;1.23;;;5.30;99.90;;;;;;4686955;30;20407;-85
2021/05/26 01:08:21;;;;;;;1.40;1.30;;;5.30;99.90;;;;;;4700000;30;20061;-85
2021/05/26 01:10:50;;;;;;;4.20;1.75;;;5.20;99.90;;;;;;4714777;30;20060;-85
2021/05/26 01:13:25;;;;;;;1.20;1.20;;;5.20;99.90;;;;;;4715028;30;20056;-85
2021/05/26 01:15:53;;;;;;;2.17;2.05;;;5.20;99.90;;;;;;4716225;30;20063;-85
2021/05/26 01:18:27;;;;;;;9.65;1.10;;;5.20;99.90;;;;;;4701675;30;20495;-86
2021/05/26 01:21:12;;;;;;;1.17;1.10;;;5.10;99.90;;;;;;4700483;30;20053;-86
2021/05/26 01:23:48;;;;;;;1.33;1.23;;;5.00;99.90;;;;;;4701201;30;20530;-85
2021/05/26 01:26:20;;;;;;;2.13;1.35;;;4.90;99.90;;;;;;4700922;30;20587;-85
2021/05/26 01:28:48;;;;;;;1.98;1.10;;;4.90;99.90;;;;;;4701184;30;20437;-85
2021/05/26 01:31:19;;;;;;;1.43;1.33;;;4.90;99.90;;;;;;4712236;30;20060;-85
2021/05/26 01:34:02;;;;;;;4.70;1.27;;;5.00;99.90;;;;;;4705869;30;20051;-86
2021/05/26 01:36:41;;;;;;;1.20;1.17;;;5.10;99.90;;;;;;4729833;30;20132;-86
2021/05/26 01:39:10;;;;;;;1.17;1.10;;;5.00;99.90;;;;;;4734100;30;20055;-86
2021/05/26 01:41:38;;;;;;;3.15;1.35;;;5.00;99.90;;;;;;4720251;30;20063;-85
2021/05/26 01:44:06;;;;;;;2.63;2.00;;;5.00;99.90;;;;;;4736228;30;20067;-86
2021/05/26 01:46:39;;;;;;;1.25;1.17;;;5.10;99.90;;;;;;4750534;30;20486;-86
2021/05/26 01:49:09;;;;;;;1.70;1.50;;;5.00;99.90;;;;;;4750269;30;20044;-86
2021/05/26 01:51:37;;;;;;;1.73;1.38;;;5.00;99.90;;;;;;4750071;30;20066;-86
2021/05/26 01:54:05;;;;;;;1.90;1.80;;;5.00;99.90;;;;;;4748544;30;20056;-86
2021/05/26 01:56:34;;;;;;;9.90;1.83;;;4.90;99.90;;;;;;4765849;30;20059;-86
2021/05/26 01:59:10;;;;;;;1.05;1.05;;;4.90;99.90;;;;;;4750698;30;20064;-84
2021/05/26 02:01:41;;;;;;;2.10;1.48;;;4.80;99.90;;;;;;4721169;30;20249;-85
2021/05/26 02:04:09;;;;;;;1.10;1.10;;;4.80;99.90;;;;;;4721166;30;20056;-86
2021/05/26 02:06:45;;;;;;;2.42;1.50;;;4.80;99.90;;;;;;4750044;30;20048;-82
2021/05/26 02:09:13;;;;;;;0.98;0.98;;;4.70;99.90;;;;;;4748944;30;20048;-83
2021/05/26 02:14:28;;;;;;;1.58;1.10;;;4.50;99.90;;;;;;4715249;30;20435;-82
2021/05/26 02:16:58;;;;;;;2.55;1.67;;;4.50;99.90;;;;;;4715067;30;20377;-84
2021/05/26 02:19:27;;;;;;;2.58;1.38;;;4.50;99.90;;;;;;4714719;30;20064;-85
2021/05/26 02:21:56;;;;;;;1.52;1.42;;;4.50;99.90;;;;;;4700408;30;20428;-84
2021/05/26 02:24:25;;;;;;;3.30;1.90;;;4.40;99.90;;;;;;4713285;30;20080;-85
2021/05/26 02:26:53;;;;;;;2.42;1.50;;;4.40;99.90;;;;;;4701096;30;20066;-85
2021/05/26 02:29:21;;;;;;;1.80;1.35;;;4.60;99.90;;;;;;4714932;30;20049;-85
2021/05/26 02:31:49;;;;;;;2.53;1.50;;;4.60;99.90;;;;;;4714669;30;20343;-85
2021/05/26 02:34:18;;;;;;;2.20;1.17;;;4.50;99.90;;;;;;4700055;30;20063;-85
2021/05/26 02:36:46;;;;;;;2.63;1.48;;;4.40;99.90;;;;;;4722980;30;20067;-86
2021/05/26 02:39:15;;;;;;;1.38;1.27;;;4.40;99.90;;;;;;4751295;30;20052;-86
2021/05/26 02:41:43;;;;;;;2.03;1.88;;;4.30;99.90;;;;;;4752549;30;20063;-85
2021/05/26 02:44:15;;;;;;;1.30;1.13;;;4.30;99.90;;;;;;4753181;30;20052;-86
2021/05/26 02:46:44;;;;;;;4.13;2.50;;;4.40;99.90;;;;;;4754853;30;20052;-84
2021/05/26 02:49:12;;;;;;;1.30;1.30;;;4.20;99.90;;;;;;4703506;30;20052;-86
2021/05/26 02:51:41;;;;;;;3.33;2.22;;;4.30;99.90;;;;;;4703405;30;20056;-85
2021/05/26 02:54:10;;;;;;;1.63;1.52;;;4.10;99.90;;;;;;4701780;30;20065;-85
2021/05/26 02:56:43;;;;;;;2.42;2.20;;;4.00;99.90;;;;;;4717475;30;20049;-85
2021/05/26 02:59:11;;;;;;;3.22;1.67;;;4.00;99.90;;;;;;4718640;30;20057;-85
2021/05/26 03:01:59;;;;;;;1.60;1.50;;;3.90;99.90;;;;;;4732553;30;20052;-85
2021/05/26 03:04:50;;;;;;;1.88;1.65;;;3.80;99.90;;;;;;4713204;30;20163;-85
2021/05/26 03:07:18;;;;;;;4.78;1.42;;;3.90;99.90;;;;;;4703964;30;20519;-85
2021/05/26 03:09:47;;;;;;;2.72;2.15;;;4.00;99.90;;;;;;4687297;30;20052;-85
2021/05/26 03:12:16;;;;;;;1.17;1.10;;;3.90;99.90;;;;;;4703129;30;20087;-85
2021/05/26 03:14:54;;;;;;;1.50;1.40;;;4.00;99.90;;;;;;4691029;30;20064;-86
2021/05/26 03:17:27;;;;;;;1.88;1.77;;;3.90;99.90;;;;;;4732732;30;20045;-85
2021/05/26 03:19:58;;;;;;;1.65;1.45;;;3.90;99.90;;;;;;4688768;30;20483;-85
2021/05/26 03:22:35;;;;;;;2.25;1.30;;;3.70;99.90;;;;;;4704110;30;20636;-86
2021/05/26 03:25:05;;;;;;;1.63;1.52;;;3.70;99.90;;;;;;4731201;30;20054;-86
2021/05/26 03:27:37;;;;;;;1.95;1.45;;;3.70;99.90;;;;;;4733665;30;20558;-85
2021/05/26 03:30:09;;;;;;;2.83;2.22;;;3.70;99.90;;;;;;4716421;30;20052;-85
2021/05/26 03:32:39;;;;;;;2.00;1.90;;;3.70;99.90;;;;;;4717085;30;20055;-85
2021/05/26 03:35:09;;;;;;;2.08;1.98;;;3.70;99.90;;;;;;4703517;30;20060;-85
2021/05/26 03:37:38;;;;;;;1.63;1.27;;;3.70;99.90;;;;;;4751655;30;20506;-85
2021/05/26 03:40:11;;;;;;;1.40;1.20;;;3.70;99.90;;;;;;4721714;30;20059;-85
2021/05/26 03:42:43;;;;;;;3.13;1.75;;;3.70;99.90;;;;;;4737013;30;20787;-86
2021/05/26 03:45:23;;;;;;;2.47;1.60;;;3.70;99.90;;;;;;4724971;30;20376;-85
2021/05/26 03:47:53;;;;;;;2.95;1.60;;;3.90;99.90;;;;;;4768224;30;20518;-85
2021/05/26 03:50:21;;;;;;;2.05;1.95;;;3.90;99.90;;;;;;4765549;30;20392;-85
2021/05/26 03:52:50;;;;;;;2.65;1.10;;;4.10;99.90;;;;;;4737343;30;20502;-85
2021/05/26 03:55:21;;;;;;;1.40;1.30;;;4.10;99.90;;;;;;4722802;30;20059;-85
2021/05/26 03:57:52;;;;;;;1.10;1.00;;;4.20;99.90;;;;;;4737324;30;20048;-86
2021/05/26 04:00:22;;;;;;;1.17;1.17;;;4.20;99.90;;;;;;4736746;30;20414;-85
2021/05/26 04:03:09;;;;;;;3.85;1.58;;;4.10;99.90;;;;;;4725434;30;20066;-85
2021/05/26 04:05:38;;;;;;;2.00;1.90;;;4.20;99.90;;;;;;4737687;30;20274;-86
2021/05/26 04:08:06;;;;;;;1.60;1.50;;;4.10;99.90;;;;;;4737773;30;20060;-85
2021/05/26 04:10:37;;;;;;;1.03;1.03;;;4.30;99.90;;;;;;4729026;30;20049;-85
2021/05/26 04:13:31;;;;;;;1.30;1.20;;;4.30;99.90;;;;;;4691108;30;20048;-85
2021/05/26 04:16:08;;;;;;;5.22;2.13;;;4.30;99.90;;;;;;4702972;30;20052;-85
2021/05/26 04:18:59;;;;;;;1.58;1.48;;;4.40;99.90;;;;;;4701781;30;20057;-85
2021/05/26 04:21:27;;;;;;;1.67;1.58;;;4.50;99.90;;;;;;4701846;30;20045;-85
2021/05/26 04:23:56;;;;;;;1.70;1.60;;;4.70;99.90;;;;;;4731440;30;20496;-85
2021/05/26 04:26:24;;;;;;;1.80;1.70;;;4.80;99.90;;;;;;4702182;30;20440;-85
2021/05/26 04:28:53;;;;;;;2.42;2.25;;;4.90;99.90;;;;;;4716158;30;20045;-85
2021/05/26 04:31:22;;;;;;;1.60;1.25;;;4.90;99.90;;;;;;4716004;30;20354;-85
2021/05/26 04:33:50;;;;;;;3.08;1.90;;;5.00;99.90;;;;;;4715971;30;20052;-86
2021/05/26 04:36:18;;;;;;;2.22;1.58;;;5.10;99.90;;;;;;4717804;30;20502;-86
2021/05/26 04:38:46;;;;;;;1.83;1.73;;;5.10;99.90;;;;;;4765931;30;20485;-85
2021/05/26 04:41:14;;;;;;;1.92;1.83;;;5.30;99.90;;;;;;4721456;30;20047;-85
2021/05/26 04:43:42;;;;;;;1.73;1.63;;;5.40;99.90;;;;;;4737179;30;20395;-85
2021/05/26 04:46:10;;;;;;;1.65;1.45;;;5.70;99.90;;;;;;4745245;30;20045;-85
2021/05/26 04:48:37;;;;;;;1.52;1.50;;;5.90;99.90;;;;;;4701439;30;20059;-85
2021/05/26 04:51:05;;;;;;;3.67;2.10;;;6.30;99.90;;;;;;4701509;30;20415;-85
2021/05/26 04:53:33;;;;;;;3.13;1.50;;;6.60;99.90;;;;;;4700124;30;20859;-86
2021/05/26 04:56:01;;;;;;;2.92;1.45;;;7.00;99.90;;;;;;4731288;30;20063;-85
2021/05/26 04:58:29;;;;;;;5.28;3.90;;;7.30;99.90;;;;;;4731534;30;20061;-85
2021/05/26 05:00:57;;;;;;;1.88;1.77;;;7.40;99.90;;;;;;4730680;30;20048;-86
2021/05/26 05:03:25;;;;;;;2.20;2.05;;;7.80;99.90;;;;;;4716063;30;20057;-86
2021/05/26 05:05:53;;;;;;;2.22;2.00;;;8.20;99.90;;;;;;4731648;30;20053;-86
2021/05/26 05:08:21;;;;;;;2.55;1.92;;;8.20;99.90;;;;;;4700333;30;20060;-85
2021/05/26 05:10:49;;;;;;;3.38;3.17;;;8.10;99.90;;;;;;4729953;30;20071;-85
2021/05/26 05:13:16;;;;;;;1.15;1.15;;;8.20;99.90;;;;;;4715189;30;20061;-86
2021/05/26 05:15:44;;;;;;;1.85;1.30;;;8.30;99.90;;;;;;4701753;30;20404;-86
2021/05/26 05:18:12;;;;;;;1.17;1.08;;;8.30;99.90;;;;;;4731432;30;20416;-85
2021/05/26 05:20:40;;;;;;;9.65;1.20;;;8.50;99.90;;;;;;4714936;30;20483;-85
2021/05/26 05:23:08;;;;;;;1.83;1.70;;;8.50;99.90;;;;;;4716427;30;20431;-85
2021/05/26 05:25:36;;;;;;;1.60;1.50;;;8.60;99.90;;;;;;4699968;30;20052;-85
2021/05/26 05:28:05;;;;;;;1.25;1.23;;;8.70;99.90;;;;;;4716101;30;20060;-85
2021/05/26 05:30:33;;;;;;;1.40;1.30;;;9.10;99.90;;;;;;4700632;30;20044;-86
2021/05/26 05:33:01;;;;;;;2.13;1.45;;;9.40;99.90;;;;;;4715297;30;20068;-85
2021/05/26 05:35:29;;;;;;;1.67;1.58;;;9.70;99.90;;;;;;4734943;30;20064;-85
2021/05/26 05:37:57;;;;;;;1.67;1.58;;;10.10;99.90;;;;;;4736002;30;20071;-86
2021/05/26 05:40:26;;;;;;;1.48;1.25;;;10.20;99.90;;;;;;4733335;30;20052;-86
2021/05/26 05:42:54;;;;;;;1.45;1.35;;;9.80;99.90;;;;;;4750889;30;20079;-85
2021/05/26 05:45:22;;;;;;;2.28;1.83;;;9.80;99.90;;;;;;4766107;30;20418;-77
2021/05/26 05:47:50;;;;;;;1.55;1.23;;;9.90;99.90;;;;;;4736092;30;20066;-85
2021/05/26 05:50:18;;;;;;;1.17;1.08;;;10.20;99.90;;;;;;4765274;30;20055;-85
2021/05/26 05:52:49;;;;;;;4.25;1.05;;;10.70;99.90;;;;;;4766200;30;20380;-85
2021/05/26 05:55:18;;;;;;;1.02;0.93;;;11.10;99.90;;;;;;4749308;30;20059;-86
2021/05/26 05:57:48;;;;;;;3.58;2.28;;;11.50;99.90;;;;;;4735957;30;20052;-85
2021/05/26 06:00:16;;;;;;;2.60;1.90;;;11.80;99.90;;;;;;4749394;30;20064;-86
2021/05/26 06:02:44;;;;;;;0.90;0.90;;;12.10;99.90;;;;;;4721403;30;20052;-86
2021/05/26 06:05:15;;;;;;;4.80;1.40;;;12.40;96.40;;;;;;4735544;30;20048;-86
2021/05/26 06:07:43;;;;;;;2.00;1.20;;;12.60;96.60;;;;;;4721480;30;20055;-85
2021/05/26 06:10:12;;;;;;;0.88;0.70;;;12.80;95.40;;;;;;4718244;30;20056;-85
2021/05/26 06:12:40;;;;;;;3.33;1.30;;;12.30;96.40;;;;;;4714952;30;20444;-85
2021/05/26 06:15:09;;;;;;;7.07;2.90;;;12.00;97.60;;;;;;4718782;30;20072;-86
2021/05/26 06:17:37;;;;;;;1.00;1.00;;;11.60;98.40;;;;;;4703867;30;20507;-87
2021/05/26 06:20:07;;;;;;;1.08;0.98;;;11.60;99.90;;;;;;4718830;30;20064;-86
2021/05/26 06:22:34;;;;;;;3.35;1.15;;;11.60;99.20;;;;;;4718270;30;20519;-86
2021/05/26 06:25:04;;;;;;;1.08;0.98;;;11.70;99.20;;;;;;4702183;30;20049;-86
2021/05/26 06:27:32;;;;;;;2.15;1.02;;;11.80;99.90;;;;;;4704260;30;20079;-86
2021/05/26 06:29:59;;;;;;;1.05;0.93;;;11.60;99.20;;;;;;4689325;30;20053;-86
2021/05/26 06:32:27;;;;;;;1.42;1.35;;;11.50;99.10;;;;;;4734162;30;20056;-86
2021/05/26 06:34:55;;;;;;;1.50;1.40;;;11.40;99.60;;;;;;4718120;30;20052;-85
2021/05/26 06:37:23;;;;;;;2.03;1.25;;;11.70;99.40;;;;;;4735596;30;20054;-86
2021/05/26 06:39:51;;;;;;;1.15;0.90;;;12.50;99.50;;;;;;4751948;30;20067;-86
2021/05/26 06:42:19;;;;;;;1.27;1.10;;;13.40;97.50;;;;;;4752985;30;20048;-85
2021/05/26 06:44:48;;;;;;;1.38;1.15;;;14.30;95.10;;;;;;4738954;30;20052;-85
2021/05/26 06:47:16;;;;;;;1.85;1.75;;;15.40;94.00;;;;;;4739711;30;20422;-85
2021/05/26 06:49:43;;;;;;;1.00;0.90;;;16.30;93.10;;;;;;4732416;30;20063;-84
2021/05/26 06:52:11;;;;;;;0.90;0.85;;;16.60;89.40;;;;;;4732355;30;20094;-85
2021/05/26 06:54:39;;;;;;;0.88;0.73;;;16.80;89.80;;;;;;4732065;30;20060;-84
2021/05/26 06:57:07;;;;;;;1.25;0.90;;;16.50;88.80;;;;;;4732580;30;20411;-85
2021/05/26 06:59:35;;;;;;;1.48;0.90;;;16.20;88.70;;;;;;4733700;30;20064;-85
2021/05/26 07:02:03;;;;;;;1.33;1.33;;;15.60;91.70;;;;;;4717306;30;20060;-84
2021/05/26 07:04:31;;;;;;;3.78;0.93;;;15.00;94.40;;;;;;4733199;30;20072;-83
2021/05/26 07:07:00;;;;;;;0.80;0.80;;;15.20;93.40;;;;;;4732882;30;20057;-84
2021/05/26 07:09:28;;;;;;;1.13;0.70;;;15.50;93.70;;;;;;4730241;30;20060;-85
2021/05/26 07:11:56;;;;;;;1.48;0.70;;;15.50;91.90;;;;;;4717560;30;20256;-85
2021/05/26 07:14:28;;;;;;;0.82;0.82;;;15.10;93.60;;;;;;4732125;30;20049;-84
2021/05/26 07:16:56;;;;;;;1.58;0.60;;;15.00;93.80;;;;;;4733573;30;20041;-84
2021/05/26 07:19:24;;;;;;;2.33;1.05;;;15.10;92.50;;;;;;4732655;30;20059;-84
2021/05/26 07:21:52;;;;;;;7.18;3.33;;;15.10;93.50;;;;;;4732766;30;20061;-84
2021/05/26 07:24:20;;;;;;;0.80;0.80;;;15.10;92.80;;;;;;4731110;30;20072;-85
2021/05/26 07:26:48;;;;;;;0.75;0.70;;;15.40;93.70;;;;;;4732787;30;20061;-84
2021/05/26 07:29:16;;;;;;;1.45;0.93;;;15.80;92.00;;;;;;4732059;30;20053;-85
2021/05/26 07:31:44;;;;;;;1.08;0.98;;;16.20;90.00;;;;;;4716878;30;20499;-83
2021/05/26 07:34:11;;;;;;;1.95;0.88;;;16.30;90.40;;;;;;4702737;30;20078;-85
2021/05/26 07:36:39;;;;;;;0.95;0.70;;;16.20;91.00;;;;;;4754478;30;20044;-85
2021/05/26 07:39:08;;;;;;;0.60;0.60;;;15.90;92.50;;;;;;4751285;30;20063;-84
2021/05/26 07:41:36;;;;;;;2.67;0.95;;;15.90;90.90;;;;;;4767165;30;20059;-85
2021/05/26 07:44:04;;;;;;;0.70;0.70;;;16.10;91.60;;;;;;4737889;30;20052;-85
2021/05/26 07:46:33;;;;;;;0.60;0.60;;;16.30;91.60;;;;;;4737696;30;20058;-84
2021/05/26 07:49:01;;;;;;;0.93;0.93;;;16.40;91.40;;;;;;4752294;30;20047;-86
2021/05/26 07:51:33;;;;;;;1.08;0.60;;;16.60;90.50;;;;;;4768209;30;20067;-86
2021/05/26 07:54:01;;;;;;;0.68;0.68;;;16.90;86.20;;;;;;4766682;30;20411;-85
2021/05/26 07:56:29;;;;;;;0.52;0.50;;;16.80;90.10;;;;;;4737342;30;20059;-84
2021/05/26 07:58:57;;;;;;;1.65;0.73;;;16.60;88.40;;;;;;4768202;30;20060;-79
2021/05/26 08:01:25;;;;;;;0.60;0.60;;;16.50;86.50;;;;;;4767028;30;20076;-84
2021/05/26 08:03:52;;;;;;;1.02;0.80;;;16.30;90.80;;;;;;4768063;30;20471;-86
2021/05/26 08:06:20;;;;;;;0.95;0.80;;;16.50;89.20;;;;;;4767585;30;20048;-84
2021/05/26 08:08:48;;;;;;;3.22;0.63;;;17.20;87.60;;;;;;4741896;30;20067;-87
2021/05/26 08:11:16;;;;;;;0.47;0.47;;;17.60;85.50;;;;;;4732339;30;20598;-85
2021/05/26 08:13:43;;;;;;;0.68;0.68;;;17.70;79.40;;;;;;4732169;30;20075;-85
2021/05/26 08:16:11;;;;;;;0.68;0.50;;;17.00;74.90;;;;;;4717012;30;20056;-85
2021/05/26 08:18:39;;;;;;;1.23;0.60;;;17.40;85.70;;;;;;4716180;30;20061;-85
2021/05/26 08:21:08;;;;;;;0.77;0.60;;;17.90;73.40;;;;;;4716416;30;20049;-84
2021/05/26 08:23:38;;;;;;;0.63;0.63;;;18.80;75.70;;;;;;4730802;30;20080;-84
2021/05/26 08:26:11;;;;;;;0.82;0.82;;;18.90;76.80;;;;;;4716705;30;20542;-85
2021/05/26 08:28:39;;;;;;;1.00;0.60;;;18.90;81.80;;;;;;4732361;30;20308;-84
2021/05/26 08:31:07;;;;;;;0.85;0.85;;;18.00;80.30;;;;;;4730919;30;20496;-84
2021/05/26 08:33:35;;;;;;;1.90;1.00;;;17.40;79.50;;;;;;4730245;30;20500;-84
2021/05/26 08:36:03;;;;;;;2.30;0.60;;;16.70;83.20;;;;;;4728356;30;20502;-84
2021/05/26 08:38:31;;;;;;;0.82;0.80;;;16.30;80.00;;;;;;4765074;30;20545;-85
2021/05/26 08:41:04;;;;;;;3.13;0.98;;;16.10;85.00;;;;;;4766985;30;20503;-85
2021/05/26 08:43:36;;;;;;;3.10;0.95;;;16.00;86.00;;;;;;4751772;30;20055;-85
2021/05/26 08:46:04;;;;;;;1.55;0.80;;;16.00;83.90;;;;;;4762647;30;20052;-85
2021/05/26 08:48:33;;;;;;;3.03;0.93;;;16.20;86.60;;;;;;4715887;30;20440;-86
2021/05/26 08:51:03;;;;;;;4.25;0.90;;;16.00;82.90;;;;;;4715868;30;20064;-85
2021/05/26 08:53:31;;;;;;;1.23;1.05;;;15.60;87.60;;;;;;4729401;30;20057;-84
2021/05/26 08:55:58;;;;;;;2.47;0.70;;;15.30;90.20;;;;;;4716105;30;20610;-86
2021/05/26 08:58:26;;;;;;;0.95;0.77;;;15.20;90.20;;;;;;4701536;30;20048;-85
2021/05/26 09:00:54;;;;;;;5.90;2.15;;;15.10;92.00;;;;;;4730989;30;20059;-84
2021/05/26 09:03:22;;;;;;;0.88;0.68;;;15.30;88.70;;;;;;4701303;30;20057;-84
2021/05/26 09:05:53;;;;;;;0.43;0.43;;;15.50;90.50;;;;;;4715748;30;20056;-86
2021/05/26 09:08:22;;;;;;;0.68;0.55;;;15.70;91.30;;;;;;4714736;30;20057;-85
2021/05/26 09:11:02;;;;;;;3.80;0.70;;;15.90;87.20;;;;;;4715603;30;20163;-85
2021/05/26 09:13:37;;;;;;;0.50;0.50;;;15.80;86.20;;;;;;4715475;30;20051;-84
2021/05/26 09:16:28;;;;;;;0.98;0.63;;;15.60;87.30;;;;;;4731873;30;20071;-85
2021/05/26 09:19:05;;;;;;;0.60;0.60;;;15.60;85.20;;;;;;4687325;30;20526;-85
2021/05/26 09:21:40;;;;;;;0.40;0.40;;;15.60;86.00;;;;;;4700923;30;20056;-86
2021/05/26 09:24:18;;;;;;;0.60;0.60;;;15.50;83.90;;;;;;4729753;30;20068;-84
2021/05/26 09:26:50;;;;;;;1.25;1.15;;;15.40;86.00;;;;;;4714942;30;20067;-86
2021/05/26 09:29:37;;;;;;;1.67;0.57;;;15.40;81.90;;;;;;4731285;30;20515;-78
2021/05/26 09:32:14;;;;;;;0.60;0.60;;;15.50;89.60;;;;;;4731323;30;20430;-78
2021/05/26 09:34:44;;;;;;;2.78;0.80;;;15.50;83.90;;;;;;4729787;30;20087;-76
2021/05/26 09:37:16;;;;;;;2.75;0.70;;;15.40;86.60;;;;;;4760260;30;20040;-78
2021/05/26 09:39:51;;;;;;;1.50;0.70;;;15.30;82.80;;;;;;4765140;30;20067;-86
2021/05/26 09:42:31;;;;;;;0.52;0.45;;;15.20;85.30;;;;;;4765713;30;20055;-85
2021/05/26 09:45:25;;;;;;;2.90;0.60;;;15.10;79.60;;;;;;4735657;30;20062;-84
2021/05/26 09:47:55;;;;;;;0.70;0.70;;;15.10;78.30;;;;;;4766802;30;20066;-86
2021/05/26 09:50:35;;;;;;;1.95;0.70;;;15.00;81.70;;;;;;4749814;30;20084;-86
2021/05/26 09:53:09;;;;;;;1.53;0.70;;;15.10;81.50;;;;;;4735728;30;20055;-85
2021/05/26 09:55:43;;;;;;;2.45;0.55;;;15.40;85.10;;;;;;4735354;30;20059;-85
2021/05/26 09:58:13;;;;;;;0.82;0.60;;;15.50;84.20;;;;;;4766407;30;20069;-84
2021/05/26 10:00:45;;;;;;;0.73;0.73;;;15.60;78.70;;;;;;4749523;30;20055;-84
2021/05/26 10:03:14;;;;;;;3.50;0.82;;;15.40;78.30;;;;;;4751188;30;20459;-85
2021/05/26 10:05:42;;;;;;;3.13;0.93;;;15.40;79.00;;;;;;4735718;30;20067;-85
2021/05/26 10:08:29;;;;;;;2.33;0.98;;;15.60;82.10;;;;;;4759017;30;20064;-86
2021/05/26 10:11:22;;;;;;;1.20;1.10;;;15.90;79.20;;;;;;4731044;30;20056;-85
2021/05/26 10:13:51;;;;;;;0.98;0.40;;;16.10;84.80;;;;;;4714945;30;20052;-86
2021/05/26 10:16:21;;;;;;;0.60;0.60;;;16.10;75.00;;;;;;4700526;30;20061;-84
2021/05/26 10:18:50;;;;;;;2.83;0.63;;;16.00;77.00;;;;;;4730216;30;20057;-87
2021/05/26 10:21:22;;;;;;;1.55;1.45;;;15.90;79.20;;;;;;4729888;30;20055;-85
2021/05/26 10:23:57;;;;;;;3.95;0.95;;;16.00;76.10;;;;;;4714283;30;20487;-86
2021/05/26 10:26:46;;;;;;;0.77;0.43;;;16.00;78.70;;;;;;4715328;30;20052;-82
2021/05/26 10:29:29;;;;;;;2.30;0.70;;;16.00;81.70;;;;;;4686103;30;20068;-86
2021/05/26 10:32:00;;;;;;;1.05;0.50;;;15.60;79.90;;;;;;4730484;30;20060;-87
2021/05/26 10:34:46;;;;;;;0.95;0.77;;;15.30;80.40;;;;;;4729600;30;20060;-84
2021/05/26 10:37:32;;;;;;;1.30;0.40;;;15.50;78.80;;;;;;4743270;30;20077;-86
2021/05/26 10:40:02;;;;;;;0.50;0.50;;;15.50;80.90;;;;;;4763742;30;20517;-84
2021/05/26 10:42:32;;;;;;;1.77;0.60;;;15.90;79.50;;;;;;4765376;30;20070;-86
2021/05/26 10:45:06;;;;;;;;;;;15.80;77.50;;;;;;4749643;30;20048;-86
2021/05/26 10:47:37;;;;;;;1.13;0.50;;;15.90;79.70;;;;;;4723788;30;20289;-85
2021/05/26 10:50:16;;;;;;;0.57;0.57;;;16.00;80.20;;;;;;4728938;30;20061;-83
2021/05/26 10:52:56;;;;;;;3.45;1.15;;;16.40;74.60;;;;;;4717606;30;20053;-87
2021/05/26 10:55:36;;;;;;;0.50;0.50;;;16.50;77.80;;;;;;4731572;30;20072;-86
2021/05/26 10:58:29;;;;;;;0.77;0.55;;;16.50;73.00;;;;;;4715748;30;20057;-85
2021/05/26 11:00:57;;;;;;;1.33;1.27;;;16.60;81.20;;;;;;4719054;30;20049;-86
2021/05/26 11:03:28;;;;;;;0.70;0.70;;;16.80;77.10;;;;;;4729827;30;20067;-86
2021/05/26 11:05:58;;;;;;;2.17;0.57;;;16.80;74.00;;;;;;4719389;30;20052;-87
2021/05/26 11:08:41;;;;;;;1.55;0.60;;;16.80;69.70;;;;;;4718488;30;20063;-87
2021/05/26 11:11:29;;;;;;;0.63;0.50;;;16.70;74.10;;;;;;4719885;30;20060;-86
2021/05/26 11:14:24;;;;;;;3.05;0.95;;;16.90;87.30;;;;;;4719020;30;20488;-86
2021/05/26 11:17:00;;;;;;;0.57;0.57;;;17.30;73.70;;;;;;4690727;30;20056;-86
2021/05/26 11:19:30;;;;;;;0.95;0.70;;;17.00;79.60;;;;;;4711305;30;20056;-85
2021/05/26 11:22:05;;;;;;;1.00;0.70;;;17.00;86.00;;;;;;4720342;30;20048;-86
2021/05/26 11:24:35;;;;;;;0.65;0.50;;;17.10;73.60;;;;;;4735409;30;20070;-86
2021/05/26 11:27:17;;;;;;;2.08;1.20;;;17.40;87.00;;;;;;4737459;30;20060;-86
2021/05/26 11:29:51;;;;;;;0.40;0.40;;;17.50;86.20;;;;;;4735277;30;20056;-86
2021/05/26 11:32:22;;;;;;;1.05;0.95;;;17.60;86.20;;;;;;4733658;30;20063;-87
2021/05/26 11:34:53;;;;;;;0.40;0.40;;;17.70;73.90;;;;;;4734674;30;20404;-86
2021/05/26 11:37:33;;;;;;;5.75;0.77;;;17.70;69.40;;;;;;4750055;30;20063;-85
2021/05/26 11:40:03;;;;;;;0.47;0.47;;;17.30;70.70;;;;;;4769367;30;20442;-87
2021/05/26 11:42:31;;;;;;;2.10;0.60;;;16.90;72.00;;;;;;4750236;30;20067;-87
2021/05/26 11:45:08;;;;;;;1.15;0.85;;;16.80;73.60;;;;;;4731744;30;20059;-86
2021/05/26 11:47:41;;;;;;;2.38;0.63;;;16.90;75.70;;;;;;4739996;30;20057;-87
2021/05/26 11:50:15;;;;;;;1.48;0.90;;;16.90;77.90;;;;;;4718091;30;20056;-87
2021/05/26 11:52:59;;;;;;;0.85;0.80;;;16.90;81.10;;;;;;4718924;30;20041;-86
2021/05/26 11:55:28;;;;;;;2.40;0.68;;;16.80;77.30;;;;;;4703447;30;20060;-85
2021/05/26 11:57:56;;;;;;;1.65;0.60;;;16.80;76.50;;;;;;4718436;30;20044;-86
2021/05/26 12:00:35;;;;;;;1.55;1.20;;;16.70;85.60;;;;;;4717996;30;20060;-85
2021/05/26 12:03:12;;;;;;;2.85;1.35;;;16.60;77.20;;;;;;4718989;30;20053;-86
2021/05/26 12:05:52;;;;;;;0.65;0.65;;;16.50;75.10;;;;;;4734179;30;20049;-85
2021/05/26 12:08:20;;;;;;;2.45;0.90;;;16.40;80.00;;;;;;4705493;30;20063;-87
2021/05/26 12:11:03;;;;;;;1.88;0.60;;;16.60;83.00;;;;;;4746119;30;20064;-85
2021/05/26 12:13:33;;;;;;;4.32;0.90;;;16.70;78.10;;;;;;4718230;30;20053;-86
2021/05/26 12:16:05;;;;;;;0.65;0.65;;;16.50;81.30;;;;;;4716241;30;20056;-84
2021/05/26 12:18:34;;;;;;;1.20;0.77;;;16.30;80.10;;;;;;4733451;30;20056;-85
2021/05/26 12:21:04;;;;;;;0.65;0.63;;;16.30;81.80;;;;;;4703889;30;20056;-87
2021/05/26 12:23:37;;;;;;;1.70;0.73;;;16.50;78.10;;;;;;4703249;30;20056;-86
2021/05/26 12:26:44;;;;;;;2.30;2.15;;;16.60;86.70;;;;;;4703610;30;20069;-86
2021/05/26 12:29:23;;;;;;;1.08;0.85;;;16.60;78.70;;;;;;4704503;30;20534;-86
2021/05/26 12:31:51;;;;;;;3.08;1.13;;;16.40;81.50;;;;;;4704232;30;20063;-87
2021/05/26 12:34:21;;;;;;;2.50;1.00;;;16.30;78.90;;;;;;4703290;30;20511;-86
2021/05/26 12:36:51;;;;;;;0.63;0.52;;;16.30;80.60;;;;;;4741338;30;20509;-87
2021/05/26 12:39:20;;;;;;;0.75;0.60;;;16.30;83.20;;;;;;4753265;30;20070;-86
2021/05/26 12:41:54;;;;;;;1.08;1.08;;;16.30;83.40;;;;;;4727051;30;20053;-87
2021/05/26 12:44:23;;;;;;;2.45;1.30;;;16.20;76.30;;;;;;4719580;30;20950;-87
2021/05/26 12:46:55;;;;;;;0.95;0.77;;;16.10;81.00;;;;;;4706847;30;20071;-87
2021/05/26 12:49:29;;;;;;;2.22;1.38;;;16.20;84.00;;;;;;4720500;30;20052;-87
2021/05/26 12:52:01;;;;;;;0.82;0.82;;;16.40;83.90;;;;;;4725528;30;20075;-86
2021/05/26 12:55:06;;;;;;;1.63;0.85;;;16.50;83.90;;;;;;4702291;30;20065;-87
2021/05/26 12:57:42;;;;;;;2.38;1.00;;;16.50;79.40;;;;;;4700457;30;20056;-81
2021/05/26 13:00:16;;;;;;;0.55;0.55;;;16.60;78.10;;;;;;4717741;30;20064;-84
2021/05/26 13:02:45;;;;;;;2.65;1.58;;;16.60;78.30;;;;;;4715308;30;20052;-81
2021/05/26 13:05:17;;;;;;;6.57;1.10;;;16.50;80.50;;;;;;4746478;30;20047;-82
2021/05/26 13:07:45;;;;;;;;;;;16.40;78.80;;;;;;4734122;30;20052;-81
2021/05/26 13:10:25;;;;;;;0.73;0.73;;;16.20;77.90;;;;;;4715566;30;19930;-82
2021/05/26 13:13:12;;;;;;;6.28;2.00;;;16.20;83.30;;;;;;4733395;30;20053;-83
2021/05/26 13:15:43;;;;;;;3.65;0.98;;;16.20;82.00;;;;;;4703748;30;20060;-81
2021/05/26 13:18:11;;;;;;;4.40;1.10;;;16.00;82.70;;;;;;4731599;30;20067;-81